sensor_id;sensor_type;location;lat;lon;timestamp;P1;durP1;ratioP1;P2;durP2;ratioP2
71108;SDS011;59614;51.012;-1.648;2024-03-08T00:02:02;73.43;;;37.78;;
71108;SDS011;59614;51.012;-1.648;2024-03-08T00:04:28;79.65;;;37.55;;
71108;SDS011;59614;51.012;-1.648;2024-03-08T00:06:53;78.00;;;38.20;;
71108;SDS011;59614;51.012;-1.648;2024-03-08T00:09:19;73.75;;;37.53;;
71108;SDS011;59614;51.012;-1.648;2024-03-08T00:11:44;78.85;;;38.17;;
71108;SDS011;59614;51.012;-1.648;2024-03-08T00:14:09;71.43;;;37.03;;
71108;SDS011;59614;51.012;-1.648;2024-03-08T00:16:35;77.40;;;39.10;;
71108;SDS011;59614;51.012;-1.648;2024-03-08T00:19:00;67.30;;;36.90;;
71108;SDS011;59614;51.012;-1.648;2024-03-08T00:21:26;71.95;;;38.20;;
71108;SDS011;59614;51.012;-1.648;2024-03-08T00:23:52;74.50;;;38.28;;
71108;SDS011;59614;51.012;-1.648;2024-03-08T00:26:19;81.85;;;38.53;;
71108;SDS011;59614;51.012;-1.648;2024-03-08T00:28:47;74.27;;;36.97;;
71108;SDS011;59614;51.012;-1.648;2024-03-08T00:31:13;71.05;;;37.92;;
71108;SDS011;59614;51.012;-1.648;2024-03-08T00:33:39;81.22;;;38.75;;
71108;SDS011;59614;51.012;-1.648;2024-03-08T00:36:04;75.18;;;39.28;;
71108;SDS011;59614;51.012;-1.648;2024-03-08T00:38:30;70.43;;;36.78;;
71108;SDS011;59614;51.012;-1.648;2024-03-08T00:40:56;70.95;;;37.90;;
71108;SDS011;59614;51.012;-1.648;2024-03-08T00:43:22;66.57;;;37.15;;
71108;SDS011;59614;51.012;-1.648;2024-03-08T00:45:47;78.20;;;37.60;;
71108;SDS011;59614;51.012;-1.648;2024-03-08T00:48:12;69.45;;;37.45;;
71108;SDS011;59614;51.012;-1.648;2024-03-08T00:50:37;76.63;;;38.03;;
71108;SDS011;59614;51.012;-1.648;2024-03-08T00:53:03;77.22;;;38.47;;
71108;SDS011;59614;51.012;-1.648;2024-03-08T00:55:29;77.88;;;37.50;;
71108;SDS011;59614;51.012;-1.648;2024-03-08T00:57:55;73.60;;;38.33;;
71108;SDS011;59614;51.012;-1.648;2024-03-08T01:00:20;75.18;;;37.50;;
71108;SDS011;59614;51.012;-1.648;2024-03-08T01:02:46;80.20;;;39.05;;
71108;SDS011;59614;51.012;-1.648;2024-03-08T01:05:11;76.63;;;39.22;;
71108;SDS011;59614;51.012;-1.648;2024-03-08T01:07:37;81.63;;;39.55;;
71108;SDS011;59614;51.012;-1.648;2024-03-08T01:10:03;83.55;;;38.83;;
71108;SDS011;59614;51.012;-1.648;2024-03-08T01:12:28;82.20;;;39.47;;
71108;SDS011;59614;51.012;-1.648;2024-03-08T01:14:54;80.38;;;38.47;;
71108;SDS011;59614;51.012;-1.648;2024-03-08T01:17:20;81.07;;;39.65;;
71108;SDS011;59614;51.012;-1.648;2024-03-08T01:19:45;78.15;;;38.65;;
71108;SDS011;59614;51.012;-1.648;2024-03-08T01:22:11;76.43;;;37.60;;
71108;SDS011;59614;51.012;-1.648;2024-03-08T01:24:36;78.82;;;39.78;;
71108;SDS011;59614;51.012;-1.648;2024-03-08T01:27:02;81.05;;;39.40;;
71108;SDS011;59614;51.012;-1.648;2024-03-08T01:29:27;77.55;;;40.00;;
71108;SDS011;59614;51.012;-1.648;2024-03-08T01:31:54;94.25;;;41.40;;
71108;SDS011;59614;51.012;-1.648;2024-03-08T01:34:21;86.57;;;38.17;;
71108;SDS011;59614;51.012;-1.648;2024-03-08T01:36:47;81.40;;;39.70;;
71108;SDS011;59614;51.012;-1.648;2024-03-08T01:39:13;84.80;;;41.45;;
71108;SDS011;59614;51.012;-1.648;2024-03-08T01:41:38;82.43;;;40.05;;
71108;SDS011;59614;51.012;-1.648;2024-03-08T01:44:05;76.20;;;39.22;;
71108;SDS011;59614;51.012;-1.648;2024-03-08T01:46:32;82.75;;;41.00;;
71108;SDS011;59614;51.012;-1.648;2024-03-08T01:48:58;81.32;;;38.75;;
71108;SDS011;59614;51.012;-1.648;2024-03-08T01:51:25;83.82;;;39.78;;
71108;SDS011;59614;51.012;-1.648;2024-03-08T01:53:53;81.90;;;39.20;;
71108;SDS011;59614;51.012;-1.648;2024-03-08T01:56:22;83.25;;;40.88;;
71108;SDS011;59614;51.012;-1.648;2024-03-08T01:58:48;83.75;;;40.47;;
71108;SDS011;59614;51.012;-1.648;2024-03-08T02:01:14;92.63;;;42.08;;
71108;SDS011;59614;51.012;-1.648;2024-03-08T02:03:40;90.97;;;41.15;;
71108;SDS011;59614;51.012;-1.648;2024-03-08T02:06:05;93.63;;;41.42;;
71108;SDS011;59614;51.012;-1.648;2024-03-08T02:08:35;92.65;;;42.85;;
71108;SDS011;59614;51.012;-1.648;2024-03-08T02:11:00;81.82;;;40.22;;
71108;SDS011;59614;51.012;-1.648;2024-03-08T02:13:27;92.20;;;42.17;;
71108;SDS011;59614;51.012;-1.648;2024-03-08T02:15:57;92.93;;;42.15;;
71108;SDS011;59614;51.012;-1.648;2024-03-08T02:18:26;95.30;;;42.25;;
71108;SDS011;59614;51.012;-1.648;2024-03-08T02:20:56;92.15;;;42.85;;
71108;SDS011;59614;51.012;-1.648;2024-03-08T02:23:26;99.13;;;42.67;;
71108;SDS011;59614;51.012;-1.648;2024-03-08T02:25:52;90.10;;;41.70;;
71108;SDS011;59614;51.012;-1.648;2024-03-08T02:28:18;101.05;;;44.55;;
71108;SDS011;59614;51.012;-1.648;2024-03-08T02:30:44;103.65;;;42.33;;
71108;SDS011;59614;51.012;-1.648;2024-03-08T02:33:14;92.75;;;42.67;;
71108;SDS011;59614;51.012;-1.648;2024-03-08T02:35:43;91.47;;;42.35;;
71108;SDS011;59614;51.012;-1.648;2024-03-08T02:38:15;94.78;;;45.00;;
71108;SDS011;59614;51.012;-1.648;2024-03-08T02:40:43;91.78;;;44.05;;
71108;SDS011;59614;51.012;-1.648;2024-03-08T02:43:12;94.00;;;44.17;;
71108;SDS011;59614;51.012;-1.648;2024-03-08T02:45:39;93.78;;;44.38;;
71108;SDS011;59614;51.012;-1.648;2024-03-08T02:48:06;104.80;;;42.70;;
71108;SDS011;59614;51.012;-1.648;2024-03-08T02:50:32;90.88;;;43.22;;
71108;SDS011;59614;51.012;-1.648;2024-03-08T02:52:59;102.15;;;45.15;;
71108;SDS011;59614;51.012;-1.648;2024-03-08T02:55:25;101.55;;;44.80;;
71108;SDS011;59614;51.012;-1.648;2024-03-08T02:57:51;104.32;;;46.97;;
71108;SDS011;59614;51.012;-1.648;2024-03-08T03:00:17;110.97;;;46.42;;
71108;SDS011;59614;51.012;-1.648;2024-03-08T03:02:44;97.53;;;43.80;;
71108;SDS011;59614;51.012;-1.648;2024-03-08T03:05:10;100.65;;;43.83;;
71108;SDS011;59614;51.012;-1.648;2024-03-08T03:07:36;104.10;;;44.83;;
71108;SDS011;59614;51.012;-1.648;2024-03-08T03:10:02;106.05;;;46.03;;
71108;SDS011;59614;51.012;-1.648;2024-03-08T03:12:28;106.93;;;44.67;;
71108;SDS011;59614;51.012;-1.648;2024-03-08T03:14:54;95.78;;;44.95;;
71108;SDS011;59614;51.012;-1.648;2024-03-08T03:17:21;109.72;;;44.28;;
71108;SDS011;59614;51.012;-1.648;2024-03-08T03:19:49;102.57;;;44.15;;
71108;SDS011;59614;51.012;-1.648;2024-03-08T03:22:16;102.43;;;43.83;;
71108;SDS011;59614;51.012;-1.648;2024-03-08T03:24:43;98.22;;;43.35;;
71108;SDS011;59614;51.012;-1.648;2024-03-08T03:27:08;105.10;;;43.47;;
71108;SDS011;59614;51.012;-1.648;2024-03-08T03:29:39;101.53;;;42.78;;
71108;SDS011;59614;51.012;-1.648;2024-03-08T03:32:07;94.00;;;42.25;;
71108;SDS011;59614;51.012;-1.648;2024-03-08T03:34:33;97.47;;;43.65;;
71108;SDS011;59614;51.012;-1.648;2024-03-08T03:37:01;100.30;;;42.97;;
71108;SDS011;59614;51.012;-1.648;2024-03-08T03:39:28;100.78;;;44.35;;
71108;SDS011;59614;51.012;-1.648;2024-03-08T03:41:56;95.88;;;43.72;;
71108;SDS011;59614;51.012;-1.648;2024-03-08T03:44:22;94.13;;;44.88;;
71108;SDS011;59614;51.012;-1.648;2024-03-08T03:46:48;92.70;;;42.85;;
71108;SDS011;59614;51.012;-1.648;2024-03-08T03:49:15;109.72;;;44.38;;
71108;SDS011;59614;51.012;-1.648;2024-03-08T03:51:41;100.97;;;45.25;;
71108;SDS011;59614;51.012;-1.648;2024-03-08T03:54:06;102.03;;;43.67;;
71108;SDS011;59614;51.012;-1.648;2024-03-08T03:56:32;98.95;;;44.55;;
71108;SDS011;59614;51.012;-1.648;2024-03-08T03:58:57;93.35;;;44.55;;
71108;SDS011;59614;51.012;-1.648;2024-03-08T04:01:23;98.75;;;44.03;;
71108;SDS011;59614;51.012;-1.648;2024-03-08T04:03:49;111.47;;;47.35;;
71108;SDS011;59614;51.012;-1.648;2024-03-08T04:06:14;103.85;;;45.08;;
71108;SDS011;59614;51.012;-1.648;2024-03-08T04:08:40;96.93;;;45.88;;
71108;SDS011;59614;51.012;-1.648;2024-03-08T04:11:05;96.70;;;45.05;;
71108;SDS011;59614;51.012;-1.648;2024-03-08T04:13:32;106.40;;;44.72;;
71108;SDS011;59614;51.012;-1.648;2024-03-08T04:15:57;104.90;;;44.40;;
71108;SDS011;59614;51.012;-1.648;2024-03-08T04:18:23;96.93;;;44.60;;
71108;SDS011;59614;51.012;-1.648;2024-03-08T04:20:48;100.28;;;43.35;;
71108;SDS011;59614;51.012;-1.648;2024-03-08T04:23:14;97.70;;;45.22;;
71108;SDS011;59614;51.012;-1.648;2024-03-08T04:25:40;100.47;;;44.65;;
71108;SDS011;59614;51.012;-1.648;2024-03-08T04:28:07;103.47;;;44.13;;
71108;SDS011;59614;51.012;-1.648;2024-03-08T04:30:36;96.40;;;44.58;;
71108;SDS011;59614;51.012;-1.648;2024-03-08T04:33:02;99.55;;;44.83;;
71108;SDS011;59614;51.012;-1.648;2024-03-08T04:35:28;103.35;;;45.03;;
71108;SDS011;59614;51.012;-1.648;2024-03-08T04:37:54;101.57;;;44.47;;
71108;SDS011;59614;51.012;-1.648;2024-03-08T04:40:19;101.85;;;45.15;;
71108;SDS011;59614;51.012;-1.648;2024-03-08T04:42:44;85.80;;;40.70;;
71108;SDS011;59614;51.012;-1.648;2024-03-08T04:45:10;96.97;;;44.67;;
71108;SDS011;59614;51.012;-1.648;2024-03-08T04:47:38;95.45;;;42.83;;
71108;SDS011;59614;51.012;-1.648;2024-03-08T04:50:04;94.85;;;43.28;;
71108;SDS011;59614;51.012;-1.648;2024-03-08T04:52:30;111.43;;;46.22;;
71108;SDS011;59614;51.012;-1.648;2024-03-08T04:54:55;103.78;;;44.63;;
71108;SDS011;59614;51.012;-1.648;2024-03-08T04:57:21;101.30;;;43.95;;
71108;SDS011;59614;51.012;-1.648;2024-03-08T04:59:46;95.22;;;43.25;;
71108;SDS011;59614;51.012;-1.648;2024-03-08T05:02:12;92.53;;;43.42;;
71108;SDS011;59614;51.012;-1.648;2024-03-08T05:04:37;93.70;;;43.10;;
71108;SDS011;59614;51.012;-1.648;2024-03-08T05:07:02;103.53;;;43.45;;
71108;SDS011;59614;51.012;-1.648;2024-03-08T05:09:29;92.60;;;42.97;;
71108;SDS011;59614;51.012;-1.648;2024-03-08T05:11:56;95.53;;;42.97;;
71108;SDS011;59614;51.012;-1.648;2024-03-08T05:14:23;98.03;;;43.20;;
71108;SDS011;59614;51.012;-1.648;2024-03-08T05:16:50;93.15;;;41.78;;
71108;SDS011;59614;51.012;-1.648;2024-03-08T05:19:16;98.68;;;43.13;;
71108;SDS011;59614;51.012;-1.648;2024-03-08T05:21:45;90.05;;;40.97;;
71108;SDS011;59614;51.012;-1.648;2024-03-08T05:24:10;92.53;;;39.90;;
71108;SDS011;59614;51.012;-1.648;2024-03-08T05:26:36;91.53;;;41.00;;
71108;SDS011;59614;51.012;-1.648;2024-03-08T05:29:02;91.72;;;41.85;;
71108;SDS011;59614;51.012;-1.648;2024-03-08T05:31:28;90.20;;;41.40;;
71108;SDS011;59614;51.012;-1.648;2024-03-08T05:33:54;88.07;;;40.67;;
71108;SDS011;59614;51.012;-1.648;2024-03-08T05:36:20;84.50;;;40.95;;
71108;SDS011;59614;51.012;-1.648;2024-03-08T05:38:46;85.93;;;40.92;;
71108;SDS011;59614;51.012;-1.648;2024-03-08T05:41:12;96.18;;;41.53;;
71108;SDS011;59614;51.012;-1.648;2024-03-08T05:43:37;84.88;;;40.70;;
71108;SDS011;59614;51.012;-1.648;2024-03-08T05:46:03;88.57;;;38.95;;
71108;SDS011;59614;51.012;-1.648;2024-03-08T05:48:29;96.55;;;41.35;;
71108;SDS011;59614;51.012;-1.648;2024-03-08T05:50:57;101.57;;;43.42;;
71108;SDS011;59614;51.012;-1.648;2024-03-08T05:53:22;85.28;;;39.20;;
71108;SDS011;59614;51.012;-1.648;2024-03-08T05:55:47;101.03;;;40.80;;
71108;SDS011;59614;51.012;-1.648;2024-03-08T05:58:14;95.72;;;41.22;;
71108;SDS011;59614;51.012;-1.648;2024-03-08T06:00:39;89.00;;;40.85;;
71108;SDS011;59614;51.012;-1.648;2024-03-08T06:03:05;98.63;;;39.67;;
71108;SDS011;59614;51.012;-1.648;2024-03-08T06:05:30;89.57;;;41.13;;
71108;SDS011;59614;51.012;-1.648;2024-03-08T06:07:55;97.03;;;40.90;;
71108;SDS011;59614;51.012;-1.648;2024-03-08T06:10:21;87.20;;;39.40;;
71108;SDS011;59614;51.012;-1.648;2024-03-08T06:12:47;80.35;;;38.70;;
71108;SDS011;59614;51.012;-1.648;2024-03-08T06:15:12;88.35;;;38.75;;
71108;SDS011;59614;51.012;-1.648;2024-03-08T06:17:41;80.57;;;37.80;;
71108;SDS011;59614;51.012;-1.648;2024-03-08T06:20:06;87.57;;;39.17;;
71108;SDS011;59614;51.012;-1.648;2024-03-08T06:22:41;76.32;;;38.33;;
71108;SDS011;59614;51.012;-1.648;2024-03-08T06:25:07;83.78;;;37.88;;
71108;SDS011;59614;51.012;-1.648;2024-03-08T06:27:33;78.18;;;37.80;;
71108;SDS011;59614;51.012;-1.648;2024-03-08T06:29:59;74.45;;;36.13;;
71108;SDS011;59614;51.012;-1.648;2024-03-08T06:32:25;81.50;;;37.35;;
71108;SDS011;59614;51.012;-1.648;2024-03-08T06:34:50;83.25;;;37.28;;
71108;SDS011;59614;51.012;-1.648;2024-03-08T06:37:16;85.97;;;36.60;;
71108;SDS011;59614;51.012;-1.648;2024-03-08T06:39:46;79.80;;;35.75;;
71108;SDS011;59614;51.012;-1.648;2024-03-08T06:42:16;73.90;;;35.75;;
71108;SDS011;59614;51.012;-1.648;2024-03-08T06:44:41;78.32;;;35.55;;
71108;SDS011;59614;51.012;-1.648;2024-03-08T06:47:13;81.80;;;37.28;;
71108;SDS011;59614;51.012;-1.648;2024-03-08T06:49:40;74.70;;;34.75;;
71108;SDS011;59614;51.012;-1.648;2024-03-08T06:52:05;70.22;;;34.88;;
71108;SDS011;59614;51.012;-1.648;2024-03-08T06:54:31;82.82;;;36.45;;
71108;SDS011;59614;51.012;-1.648;2024-03-08T06:56:57;71.15;;;33.55;;
71108;SDS011;59614;51.012;-1.648;2024-03-08T06:59:22;72.78;;;34.67;;
71108;SDS011;59614;51.012;-1.648;2024-03-08T07:01:48;72.07;;;33.28;;
71108;SDS011;59614;51.012;-1.648;2024-03-08T07:04:13;73.70;;;33.80;;
71108;SDS011;59614;51.012;-1.648;2024-03-08T07:06:38;71.40;;;35.15;;
71108;SDS011;59614;51.012;-1.648;2024-03-08T07:09:05;67.35;;;34.08;;
71108;SDS011;59614;51.012;-1.648;2024-03-08T07:11:31;66.93;;;32.65;;
71108;SDS011;59614;51.012;-1.648;2024-03-08T07:13:56;70.90;;;33.92;;
71108;SDS011;59614;51.012;-1.648;2024-03-08T07:16:23;62.78;;;33.35;;
71108;SDS011;59614;51.012;-1.648;2024-03-08T07:18:48;62.92;;;32.20;;
71108;SDS011;59614;51.012;-1.648;2024-03-08T07:21:17;62.40;;;32.85;;
71108;SDS011;59614;51.012;-1.648;2024-03-08T07:23:43;62.88;;;31.42;;
71108;SDS011;59614;51.012;-1.648;2024-03-08T07:26:18;57.28;;;30.88;;
71108;SDS011;59614;51.012;-1.648;2024-03-08T07:28:45;60.83;;;31.58;;
71108;SDS011;59614;51.012;-1.648;2024-03-08T07:31:10;61.15;;;30.88;;
71108;SDS011;59614;51.012;-1.648;2024-03-08T07:33:50;55.10;;;29.38;;
71108;SDS011;59614;51.012;-1.648;2024-03-08T07:36:16;59.42;;;29.15;;
71108;SDS011;59614;51.012;-1.648;2024-03-08T07:38:41;60.05;;;32.70;;
71108;SDS011;59614;51.012;-1.648;2024-03-08T07:41:07;63.17;;;32.28;;
71108;SDS011;59614;51.012;-1.648;2024-03-08T07:43:32;56.72;;;30.48;;
71108;SDS011;59614;51.012;-1.648;2024-03-08T07:48:25;61.88;;;27.85;;
71108;SDS011;59614;51.012;-1.648;2024-03-08T07:50:52;56.03;;;29.13;;
71108;SDS011;59614;51.012;-1.648;2024-03-08T07:53:17;55.75;;;29.95;;
71108;SDS011;59614;51.012;-1.648;2024-03-08T07:55:42;53.65;;;28.80;;
71108;SDS011;59614;51.012;-1.648;2024-03-08T07:58:09;49.45;;;27.42;;
71108;SDS011;59614;51.012;-1.648;2024-03-08T08:00:36;51.80;;;28.75;;
71108;SDS011;59614;51.012;-1.648;2024-03-08T08:03:01;53.78;;;29.77;;
71108;SDS011;59614;51.012;-1.648;2024-03-08T08:05:27;66.32;;;30.90;;
71108;SDS011;59614;51.012;-1.648;2024-03-08T08:07:52;53.45;;;28.73;;
71108;SDS011;59614;51.012;-1.648;2024-03-08T08:10:18;60.42;;;29.73;;
71108;SDS011;59614;51.012;-1.648;2024-03-08T08:12:46;52.58;;;27.58;;
71108;SDS011;59614;51.012;-1.648;2024-03-08T08:15:14;52.65;;;28.75;;
71108;SDS011;59614;51.012;-1.648;2024-03-08T08:17:43;57.42;;;28.88;;
71108;SDS011;59614;51.012;-1.648;2024-03-08T08:20:10;53.25;;;27.90;;
71108;SDS011;59614;51.012;-1.648;2024-03-08T08:22:36;52.63;;;27.05;;
71108;SDS011;59614;51.012;-1.648;2024-03-08T08:25:05;54.10;;;27.52;;
71108;SDS011;59614;51.012;-1.648;2024-03-08T08:27:34;47.97;;;27.42;;
71108;SDS011;59614;51.012;-1.648;2024-03-08T08:30:01;50.47;;;27.50;;
71108;SDS011;59614;51.012;-1.648;2024-03-08T08:32:28;49.22;;;26.73;;
71108;SDS011;59614;51.012;-1.648;2024-03-08T08:34:53;44.72;;;25.67;;
71108;SDS011;59614;51.012;-1.648;2024-03-08T08:37:18;44.92;;;26.35;;
71108;SDS011;59614;51.012;-1.648;2024-03-08T08:39:44;50.80;;;27.83;;
71108;SDS011;59614;51.012;-1.648;2024-03-08T08:42:09;48.95;;;27.40;;
71108;SDS011;59614;51.012;-1.648;2024-03-08T08:44:35;47.58;;;25.83;;
71108;SDS011;59614;51.012;-1.648;2024-03-08T08:47:00;46.78;;;26.20;;
71108;SDS011;59614;51.012;-1.648;2024-03-08T08:49:26;45.45;;;25.27;;
71108;SDS011;59614;51.012;-1.648;2024-03-08T08:51:51;44.28;;;24.85;;
71108;SDS011;59614;51.012;-1.648;2024-03-08T08:54:17;46.05;;;25.52;;
71108;SDS011;59614;51.012;-1.648;2024-03-08T08:56:43;44.20;;;24.85;;
71108;SDS011;59614;51.012;-1.648;2024-03-08T08:59:09;44.20;;;25.75;;
71108;SDS011;59614;51.012;-1.648;2024-03-08T09:01:38;48.22;;;24.95;;
71108;SDS011;59614;51.012;-1.648;2024-03-08T09:04:04;45.75;;;27.10;;
71108;SDS011;59614;51.012;-1.648;2024-03-08T09:06:29;40.55;;;24.15;;
71108;SDS011;59614;51.012;-1.648;2024-03-08T09:08:55;45.45;;;24.30;;
71108;SDS011;59614;51.012;-1.648;2024-03-08T09:11:20;47.78;;;25.27;;
71108;SDS011;59614;51.012;-1.648;2024-03-08T09:13:45;46.53;;;26.30;;
71108;SDS011;59614;51.012;-1.648;2024-03-08T09:16:11;41.05;;;23.95;;
71108;SDS011;59614;51.012;-1.648;2024-03-08T09:18:37;46.75;;;24.92;;
71108;SDS011;59614;51.012;-1.648;2024-03-08T09:21:02;41.97;;;24.52;;
71108;SDS011;59614;51.012;-1.648;2024-03-08T09:23:28;39.83;;;23.35;;
71108;SDS011;59614;51.012;-1.648;2024-03-08T09:25:58;43.47;;;23.33;;
71108;SDS011;59614;51.012;-1.648;2024-03-08T09:28:23;42.28;;;24.00;;
71108;SDS011;59614;51.012;-1.648;2024-03-08T09:30:49;42.95;;;25.30;;
71108;SDS011;59614;51.012;-1.648;2024-03-08T09:33:15;41.92;;;23.70;;
71108;SDS011;59614;51.012;-1.648;2024-03-08T09:35:44;40.47;;;23.35;;
71108;SDS011;59614;51.012;-1.648;2024-03-08T09:38:11;43.35;;;23.70;;
71108;SDS011;59614;51.012;-1.648;2024-03-08T09:40:38;44.03;;;23.50;;
71108;SDS011;59614;51.012;-1.648;2024-03-08T09:43:05;38.10;;;22.20;;
71108;SDS011;59614;51.012;-1.648;2024-03-08T09:45:31;41.15;;;22.98;;
71108;SDS011;59614;51.012;-1.648;2024-03-08T09:48:00;37.47;;;22.85;;
71108;SDS011;59614;51.012;-1.648;2024-03-08T09:50:26;42.13;;;24.65;;
71108;SDS011;59614;51.012;-1.648;2024-03-08T09:52:54;38.67;;;22.80;;
71108;SDS011;59614;51.012;-1.648;2024-03-08T09:55:22;41.97;;;22.23;;
71108;SDS011;59614;51.012;-1.648;2024-03-08T09:57:47;42.30;;;23.52;;
71108;SDS011;59614;51.012;-1.648;2024-03-08T10:00:33;36.35;;;22.17;;
71108;SDS011;59614;51.012;-1.648;2024-03-08T10:03:02;37.53;;;22.73;;
71108;SDS011;59614;51.012;-1.648;2024-03-08T10:05:28;37.97;;;23.25;;
71108;SDS011;59614;51.012;-1.648;2024-03-08T10:07:55;38.97;;;21.45;;
71108;SDS011;59614;51.012;-1.648;2024-03-08T10:10:20;38.30;;;23.75;;
71108;SDS011;59614;51.012;-1.648;2024-03-08T10:12:46;39.25;;;23.20;;
71108;SDS011;59614;51.012;-1.648;2024-03-08T10:15:15;37.72;;;23.75;;
71108;SDS011;59614;51.012;-1.648;2024-03-08T10:17:41;40.42;;;22.48;;
71108;SDS011;59614;51.012;-1.648;2024-03-08T10:20:14;40.25;;;23.35;;
71108;SDS011;59614;51.012;-1.648;2024-03-08T10:22:41;39.38;;;22.92;;
71108;SDS011;59614;51.012;-1.648;2024-03-08T10:25:09;36.17;;;23.00;;
71108;SDS011;59614;51.012;-1.648;2024-03-08T10:27:36;36.37;;;22.47;;
71108;SDS011;59614;51.012;-1.648;2024-03-08T10:30:01;40.78;;;22.73;;
71108;SDS011;59614;51.012;-1.648;2024-03-08T10:32:27;34.92;;;21.85;;
71108;SDS011;59614;51.012;-1.648;2024-03-08T10:34:53;40.33;;;22.65;;
71108;SDS011;59614;51.012;-1.648;2024-03-08T10:37:21;33.88;;;20.80;;
71108;SDS011;59614;51.012;-1.648;2024-03-08T10:39:50;31.88;;;21.40;;
71108;SDS011;59614;51.012;-1.648;2024-03-08T10:42:35;36.60;;;21.48;;
71108;SDS011;59614;51.012;-1.648;2024-03-08T10:45:07;35.28;;;20.10;;
71108;SDS011;59614;51.012;-1.648;2024-03-08T10:47:42;35.80;;;21.25;;
71108;SDS011;59614;51.012;-1.648;2024-03-08T10:52:47;32.40;;;19.92;;
71108;SDS011;59614;51.012;-1.648;2024-03-08T10:55:15;34.20;;;20.02;;
71108;SDS011;59614;51.012;-1.648;2024-03-08T10:57:42;32.78;;;20.13;;
71108;SDS011;59614;51.012;-1.648;2024-03-08T11:00:08;34.70;;;20.17;;
71108;SDS011;59614;51.012;-1.648;2024-03-08T11:02:36;32.83;;;19.83;;
71108;SDS011;59614;51.012;-1.648;2024-03-08T11:05:04;30.58;;;20.15;;
71108;SDS011;59614;51.012;-1.648;2024-03-08T11:07:40;34.03;;;19.98;;
71108;SDS011;59614;51.012;-1.648;2024-03-08T11:10:17;35.45;;;18.30;;
71108;SDS011;59614;51.012;-1.648;2024-03-08T11:12:44;30.40;;;17.83;;
71108;SDS011;59614;51.012;-1.648;2024-03-08T11:15:12;32.22;;;18.70;;
71108;SDS011;59614;51.012;-1.648;2024-03-08T11:17:50;34.85;;;19.45;;
71108;SDS011;59614;51.012;-1.648;2024-03-08T11:20:16;33.63;;;19.13;;
71108;SDS011;59614;51.012;-1.648;2024-03-08T11:25:33;34.05;;;18.27;;
71108;SDS011;59614;51.012;-1.648;2024-03-08T11:28:07;31.80;;;17.70;;
71108;SDS011;59614;51.012;-1.648;2024-03-08T11:30:45;27.35;;;17.05;;
71108;SDS011;59614;51.012;-1.648;2024-03-08T11:33:16;30.80;;;16.80;;
71108;SDS011;59614;51.012;-1.648;2024-03-08T11:35:41;27.52;;;15.75;;
71108;SDS011;59614;51.012;-1.648;2024-03-08T11:38:10;26.85;;;16.45;;
71108;SDS011;59614;51.012;-1.648;2024-03-08T11:40:36;23.05;;;14.57;;
71108;SDS011;59614;51.012;-1.648;2024-03-08T11:43:02;29.10;;;14.93;;
71108;SDS011;59614;51.012;-1.648;2024-03-08T11:45:32;30.30;;;14.95;;
71108;SDS011;59614;51.012;-1.648;2024-03-08T11:48:01;24.60;;;14.55;;
71108;SDS011;59614;51.012;-1.648;2024-03-08T11:50:28;24.55;;;15.20;;
71108;SDS011;59614;51.012;-1.648;2024-03-08T11:52:59;23.90;;;14.85;;
71108;SDS011;59614;51.012;-1.648;2024-03-08T11:55:25;22.60;;;14.57;;
71108;SDS011;59614;51.012;-1.648;2024-03-08T11:57:58;24.80;;;14.07;;
71108;SDS011;59614;51.012;-1.648;2024-03-08T12:00:25;25.27;;;14.13;;
71108;SDS011;59614;51.012;-1.648;2024-03-08T12:03:07;26.35;;;14.50;;
71108;SDS011;59614;51.012;-1.648;2024-03-08T12:05:34;20.67;;;13.05;;
71108;SDS011;59614;51.012;-1.648;2024-03-08T12:08:01;23.73;;;13.57;;
71108;SDS011;59614;51.012;-1.648;2024-03-08T12:10:27;20.70;;;14.10;;
71108;SDS011;59614;51.012;-1.648;2024-03-08T12:12:53;25.70;;;14.10;;
71108;SDS011;59614;51.012;-1.648;2024-03-08T12:15:21;24.08;;;13.82;;
71108;SDS011;59614;51.012;-1.648;2024-03-08T12:17:49;25.73;;;13.65;;
71108;SDS011;59614;51.012;-1.648;2024-03-08T12:20:19;21.77;;;13.23;;
71108;SDS011;59614;51.012;-1.648;2024-03-08T12:22:55;23.45;;;13.23;;
71108;SDS011;59614;51.012;-1.648;2024-03-08T12:25:21;22.67;;;13.90;;
71108;SDS011;59614;51.012;-1.648;2024-03-08T12:27:47;21.85;;;13.88;;
71108;SDS011;59614;51.012;-1.648;2024-03-08T12:30:17;36.65;;;13.57;;
71108;SDS011;59614;51.012;-1.648;2024-03-08T12:33:01;20.58;;;12.75;;
71108;SDS011;59614;51.012;-1.648;2024-03-08T12:35:27;20.48;;;12.02;;
71108;SDS011;59614;51.012;-1.648;2024-03-08T12:37:57;22.73;;;12.68;;
71108;SDS011;59614;51.012;-1.648;2024-03-08T12:40:27;26.42;;;12.35;;
71108;SDS011;59614;51.012;-1.648;2024-03-08T12:42:57;20.25;;;12.50;;
71108;SDS011;59614;51.012;-1.648;2024-03-08T12:45:25;20.80;;;12.95;;
71108;SDS011;59614;51.012;-1.648;2024-03-08T12:47:52;22.40;;;11.60;;
71108;SDS011;59614;51.012;-1.648;2024-03-08T12:50:18;21.27;;;12.20;;
71108;SDS011;59614;51.012;-1.648;2024-03-08T12:52:44;23.88;;;13.45;;
71108;SDS011;59614;51.012;-1.648;2024-03-08T12:55:09;20.10;;;13.48;;
71108;SDS011;59614;51.012;-1.648;2024-03-08T12:57:35;27.23;;;14.90;;
71108;SDS011;59614;51.012;-1.648;2024-03-08T13:00:03;23.85;;;13.90;;
71108;SDS011;59614;51.012;-1.648;2024-03-08T13:02:29;18.73;;;12.53;;
71108;SDS011;59614;51.012;-1.648;2024-03-08T13:04:57;24.02;;;13.90;;
71108;SDS011;59614;51.012;-1.648;2024-03-08T13:07:23;24.63;;;14.10;;
71108;SDS011;59614;51.012;-1.648;2024-03-08T13:09:51;19.75;;;13.48;;
71108;SDS011;59614;51.012;-1.648;2024-03-08T13:12:23;20.83;;;13.60;;
71108;SDS011;59614;51.012;-1.648;2024-03-08T13:14:49;25.55;;;14.65;;
71108;SDS011;59614;51.012;-1.648;2024-03-08T13:17:14;30.08;;;14.55;;
71108;SDS011;59614;51.012;-1.648;2024-03-08T13:19:40;20.58;;;13.85;;
71108;SDS011;59614;51.012;-1.648;2024-03-08T13:22:07;24.80;;;13.55;;
71108;SDS011;59614;51.012;-1.648;2024-03-08T13:24:36;22.98;;;14.45;;
71108;SDS011;59614;51.012;-1.648;2024-03-08T13:27:02;20.13;;;13.90;;
71108;SDS011;59614;51.012;-1.648;2024-03-08T13:29:41;27.45;;;14.48;;
71108;SDS011;59614;51.012;-1.648;2024-03-08T13:32:07;23.45;;;14.50;;
71108;SDS011;59614;51.012;-1.648;2024-03-08T13:34:36;21.77;;;14.30;;
71108;SDS011;59614;51.012;-1.648;2024-03-08T13:37:01;26.05;;;15.13;;
71108;SDS011;59614;51.012;-1.648;2024-03-08T13:39:28;21.75;;;13.25;;
71108;SDS011;59614;51.012;-1.648;2024-03-08T13:41:56;20.38;;;12.70;;
71108;SDS011;59614;51.012;-1.648;2024-03-08T13:44:21;24.48;;;13.32;;
71108;SDS011;59614;51.012;-1.648;2024-03-08T13:46:47;24.20;;;13.30;;
71108;SDS011;59614;51.012;-1.648;2024-03-08T13:49:12;19.23;;;12.48;;
71108;SDS011;59614;51.012;-1.648;2024-03-08T13:51:38;21.08;;;13.10;;
71108;SDS011;59614;51.012;-1.648;2024-03-08T13:54:04;20.52;;;12.35;;
71108;SDS011;59614;51.012;-1.648;2024-03-08T13:58:57;24.17;;;12.02;;
71108;SDS011;59614;51.012;-1.648;2024-03-08T14:01:22;19.00;;;12.52;;
71108;SDS011;59614;51.012;-1.648;2024-03-08T14:03:48;20.70;;;11.88;;
71108;SDS011;59614;51.012;-1.648;2024-03-08T14:06:13;21.13;;;12.18;;
71108;SDS011;59614;51.012;-1.648;2024-03-08T14:08:39;23.73;;;11.40;;
71108;SDS011;59614;51.012;-1.648;2024-03-08T14:11:05;20.95;;;12.32;;
71108;SDS011;59614;51.012;-1.648;2024-03-08T14:13:43;18.80;;;12.48;;
71108;SDS011;59614;51.012;-1.648;2024-03-08T14:16:12;17.67;;;11.52;;
71108;SDS011;59614;51.012;-1.648;2024-03-08T14:18:38;24.92;;;12.32;;